sensor_id;sensor_type;location;lat;lon;timestamp;pressure;altitude;pressure_sealevel;temperature;humidity
76940;BME280;65885;55.848;35.916;2023-05-19T00:00:44;100093.66;;;12.13;67.93
76940;BME280;65885;55.848;35.916;2023-05-19T00:03:12;100099.84;;;12.12;67.96
76940;BME280;65885;55.848;35.916;2023-05-19T00:05:41;100095.59;;;12.08;67.87
76940;BME280;65885;55.848;35.916;2023-05-19T00:08:11;100098.34;;;12.05;67.97
76940;BME280;65885;55.848;35.916;2023-05-19T00:10:42;100100.19;;;12.03;67.92
76940;BME280;65885;55.848;35.916;2023-05-19T00:13:10;100098.50;;;12.01;68.17
76940;BME280;65885;55.848;35.916;2023-05-19T00:15:40;100101.25;;;11.98;68.19
76940;BME280;65885;55.848;35.916;2023-05-19T00:18:08;100106.56;;;11.96;68.57
76940;BME280;65885;55.848;35.916;2023-05-19T00:20:38;100100.53;;;11.94;68.53
76940;BME280;65885;55.848;35.916;2023-05-19T00:23:07;100098.84;;;11.91;68.43
76940;BME280;65885;55.848;35.916;2023-05-19T00:25:35;100098.91;;;11.90;68.80
76940;BME280;65885;55.848;35.916;2023-05-19T00:28:04;100101.53;;;11.90;68.97
76940;BME280;65885;55.848;35.916;2023-05-19T00:30:32;100108.63;;;11.88;69.13
76940;BME280;65885;55.848;35.916;2023-05-19T00:32:59;100110.44;;;11.86;68.30
76940;BME280;65885;55.848;35.916;2023-05-19T00:35:26;100115.69;;;11.86;68.95
76940;BME280;65885;55.848;35.916;2023-05-19T00:37:54;100111.41;;;11.83;68.81
76940;BME280;65885;55.848;35.916;2023-05-19T00:40:22;100113.13;;;11.84;68.95
76940;BME280;65885;55.848;35.916;2023-05-19T00:42:50;100112.31;;;11.82;68.86
76940;BME280;65885;55.848;35.916;2023-05-19T00:45:19;100117.59;;;11.82;68.71
76940;BME280;65885;55.848;35.916;2023-05-19T00:47:47;100117.66;;;11.81;68.88
76940;BME280;65885;55.848;35.916;2023-05-19T00:50:14;100119.41;;;11.80;68.81
76940;BME280;65885;55.848;35.916;2023-05-19T00:52:42;100115.91;;;11.80;68.31
76940;BME280;65885;55.848;35.916;2023-05-19T00:55:10;100122.91;;;11.81;68.50
76940;BME280;65885;55.848;35.916;2023-05-19T00:57:39;100117.66;;;11.81;69.03
76940;BME280;65885;55.848;35.916;2023-05-19T01:00:07;100119.41;;;11.79;68.90
76940;BME280;65885;55.848;35.916;2023-05-19T01:02:37;100114.22;;;11.77;68.34
76940;BME280;65885;55.848;35.916;2023-05-19T01:05:06;100111.59;;;11.77;68.63
76940;BME280;65885;55.848;35.916;2023-05-19T01:07:34;100116.84;;;11.77;69.26
76940;BME280;65885;55.848;35.916;2023-05-19T01:10:05;100120.31;;;11.78;69.34
76940;BME280;65885;55.848;35.916;2023-05-19T01:12:34;100116.00;;;11.77;69.12
76940;BME280;65885;55.848;35.916;2023-05-19T01:15:02;100120.31;;;11.78;69.22
76940;BME280;65885;55.848;35.916;2023-05-19T01:17:38;100124.66;;;11.79;69.01
76940;BME280;65885;55.848;35.916;2023-05-19T01:20:14;100120.31;;;11.78;69.32
76940;BME280;65885;55.848;35.916;2023-05-19T01:23:11;100117.75;;;11.76;69.38
76940;BME280;65885;55.848;35.916;2023-05-19T01:26:10;100123.94;;;11.75;69.21
76940;BME280;65885;55.848;35.916;2023-05-19T01:29:07;100131.88;;;11.74;69.18
76940;BME280;65885;55.848;35.916;2023-05-19T01:31:45;100127.47;;;11.74;68.85
76940;BME280;65885;55.848;35.916;2023-05-19T01:34:16;100119.69;;;11.71;69.23
76940;BME280;65885;55.848;35.916;2023-05-19T01:36:43;100126.72;;;11.71;69.19
76940;BME280;65885;55.848;35.916;2023-05-19T01:39:15;100121.50;;;11.69;69.20
76940;BME280;65885;55.848;35.916;2023-05-19T01:41:43;100125.06;;;11.68;69.27
76940;BME280;65885;55.848;35.916;2023-05-19T01:44:12;100128.53;;;11.68;69.47
76940;BME280;65885;55.848;35.916;2023-05-19T01:46:40;100118.88;;;11.69;69.79
76940;BME280;65885;55.848;35.916;2023-05-19T01:49:10;100126.78;;;11.69;69.90
76940;BME280;65885;55.848;35.916;2023-05-19T01:51:37;100127.63;;;11.70;69.75
76940;BME280;65885;55.848;35.916;2023-05-19T01:54:05;100123.28;;;11.68;70.06
76940;BME280;65885;55.848;35.916;2023-05-19T01:56:44;100126.78;;;11.69;70.17
76940;BME280;65885;55.848;35.916;2023-05-19T01:59:23;100125.00;;;11.70;69.85
76940;BME280;65885;55.848;35.916;2023-05-19T02:01:57;100129.34;;;11.71;69.99
76940;BME280;65885;55.848;35.916;2023-05-19T02:04:34;100125.84;;;11.70;69.79
76940;BME280;65885;55.848;35.916;2023-05-19T02:07:09;100133.75;;;11.70;69.63
76940;BME280;65885;55.848;35.916;2023-05-19T02:09:48;100138.97;;;11.72;69.17
76940;BME280;65885;55.848;35.916;2023-05-19T02:12:22;100138.06;;;11.73;69.20
76940;BME280;65885;55.848;35.916;2023-05-19T02:14:59;100129.31;;;11.72;69.39
76940;BME280;65885;55.848;35.916;2023-05-19T02:17:33;100136.28;;;11.73;69.11
76940;BME280;65885;55.848;35.916;2023-05-19T02:20:07;100146.78;;;11.73;69.43
76940;BME280;65885;55.848;35.916;2023-05-19T02:22:34;100135.41;;;11.73;69.29
76940;BME280;65885;55.848;35.916;2023-05-19T02:25:05;100138.84;;;11.75;69.51
76940;BME280;65885;55.848;35.916;2023-05-19T02:27:33;100132.66;;;11.76;69.74
76940;BME280;65885;55.848;35.916;2023-05-19T02:30:01;100133.59;;;11.75;69.75
76940;BME280;65885;55.848;35.916;2023-05-19T02:32:31;100134.38;;;11.77;69.64
76940;BME280;65885;55.848;35.916;2023-05-19T02:34:58;100139.56;;;11.80;69.61
76940;BME280;65885;55.848;35.916;2023-05-19T02:37:27;100140.38;;;11.82;69.91
76940;BME280;65885;55.848;35.916;2023-05-19T02:39:56;100144.66;;;11.84;69.89
76940;BME280;65885;55.848;35.916;2023-05-19T02:42:23;100140.22;;;11.86;69.85
76940;BME280;65885;55.848;35.916;2023-05-19T02:44:51;100147.13;;;11.89;69.28
76940;BME280;65885;55.848;35.916;2023-05-19T02:47:18;100144.38;;;11.92;69.43
76940;BME280;65885;55.848;35.916;2023-05-19T02:49:46;100143.47;;;11.93;69.16
76940;BME280;65885;55.848;35.916;2023-05-19T02:52:13;100144.22;;;11.97;69.20
76940;BME280;65885;55.848;35.916;2023-05-19T02:54:42;100151.22;;;11.98;69.50
76940;BME280;65885;55.848;35.916;2023-05-19T02:57:10;100150.28;;;11.99;68.91
76940;BME280;65885;55.848;35.916;2023-05-19T02:59:37;100151.94;;;12.01;69.09
76940;BME280;65885;55.848;35.916;2023-05-19T03:02:04;100152.81;;;12.02;69.38
76940;BME280;65885;55.848;35.916;2023-05-19T03:04:32;100155.41;;;12.03;69.59
76940;BME280;65885;55.848;35.916;2023-05-19T03:07:07;100157.97;;;12.05;69.34
76940;BME280;65885;55.848;35.916;2023-05-19T03:09:38;100153.56;;;12.05;69.32
76940;BME280;65885;55.848;35.916;2023-05-19T03:12:07;100156.13;;;12.07;69.23
76940;BME280;65885;55.848;35.916;2023-05-19T03:14:35;100148.19;;;12.08;68.89
76940;BME280;65885;55.848;35.916;2023-05-19T03:17:05;100163.88;;;12.11;69.29
76940;BME280;65885;55.848;35.916;2023-05-19T03:19:34;100154.13;;;12.13;69.03
76940;BME280;65885;55.848;35.916;2023-05-19T03:22:02;100162.78;;;12.17;69.29
76940;BME280;65885;55.848;35.916;2023-05-19T03:24:29;100161.81;;;12.19;69.74
76940;BME280;65885;55.848;35.916;2023-05-19T03:26:57;100164.31;;;12.22;70.01
76940;BME280;65885;55.848;35.916;2023-05-19T03:29:27;100162.44;;;12.26;69.83
76940;BME280;65885;55.848;35.916;2023-05-19T03:31:54;100169.22;;;12.32;69.77
76940;BME280;65885;55.848;35.916;2023-05-19T03:34:21;100173.53;;;12.34;69.73
76940;BME280;65885;55.848;35.916;2023-05-19T03:36:49;100169.94;;;12.37;69.80
76940;BME280;65885;55.848;35.916;2023-05-19T03:39:16;100174.25;;;12.39;69.31
76940;BME280;65885;55.848;35.916;2023-05-19T03:41:46;100176.69;;;12.44;69.69
76940;BME280;65885;55.848;35.916;2023-05-19T03:44:13;100185.34;;;12.47;69.36
76940;BME280;65885;55.848;35.916;2023-05-19T03:46:42;100172.06;;;12.50;69.18
76940;BME280;65885;55.848;35.916;2023-05-19T03:49:10;100187.72;;;12.54;68.86
76940;BME280;65885;55.848;35.916;2023-05-19T03:51:38;100187.69;;;12.55;69.04
76940;BME280;65885;55.848;35.916;2023-05-19T03:54:06;100192.81;;;12.58;68.95
76940;BME280;65885;55.848;35.916;2023-05-19T03:56:37;100185.78;;;12.59;69.17
76940;BME280;65885;55.848;35.916;2023-05-19T03:59:04;100185.72;;;12.60;69.07
76940;BME280;65885;55.848;35.916;2023-05-19T04:01:32;100195.31;;;12.61;68.95
76940;BME280;65885;55.848;35.916;2023-05-19T04:04:01;100191.81;;;12.62;68.88
76940;BME280;65885;55.848;35.916;2023-05-19T04:06:28;100182.13;;;12.63;68.74
76940;BME280;65885;55.848;35.916;2023-05-19T04:08:56;100193.38;;;12.66;69.48
76940;BME280;65885;55.848;35.916;2023-05-19T04:11:23;100196.78;;;12.70;69.33
76940;BME280;65885;55.848;35.916;2023-05-19T04:13:51;100194.00;;;12.73;69.47
76940;BME280;65885;55.848;35.916;2023-05-19T04:16:18;100191.22;;;12.77;69.38
76940;BME280;65885;55.848;35.916;2023-05-19T04:18:45;100191.88;;;12.83;68.93
76940;BME280;65885;55.848;35.916;2023-05-19T04:21:14;100196.91;;;12.89;69.40
76940;BME280;65885;55.848;35.916;2023-05-19T04:23:42;100195.03;;;12.92;69.06
76940;BME280;65885;55.848;35.916;2023-05-19T04:26:09;100200.16;;;12.95;68.64
76940;BME280;65885;55.848;35.916;2023-05-19T04:28:36;100199.09;;;12.99;68.66
76940;BME280;65885;55.848;35.916;2023-05-19T04:31:07;100200.78;;;13.02;68.70
76940;BME280;65885;55.848;35.916;2023-05-19T04:33:35;100191.84;;;13.06;68.29
76940;BME280;65885;55.848;35.916;2023-05-19T04:36:05;100194.28;;;13.11;68.56
76940;BME280;65885;55.848;35.916;2023-05-19T04:38:36;100203.75;;;13.16;68.31
76940;BME280;65885;55.848;35.916;2023-05-19T04:41:07;100200.94;;;13.21;68.52
76940;BME280;65885;55.848;35.916;2023-05-19T04:43:35;100203.41;;;13.25;68.30
76940;BME280;65885;55.848;35.916;2023-05-19T04:46:06;100204.94;;;13.31;68.31
76940;BME280;65885;55.848;35.916;2023-05-19T04:48:34;100203.81;;;13.37;68.20
76940;BME280;65885;55.848;35.916;2023-05-19T04:51:02;100199.06;;;13.45;68.25
76940;BME280;65885;55.848;35.916;2023-05-19T04:53:29;100195.34;;;13.50;68.49
76940;BME280;65885;55.848;35.916;2023-05-19T04:56:02;100195.81;;;13.60;68.37
76940;BME280;65885;55.848;35.916;2023-05-19T04:58:29;100196.38;;;13.68;68.34
76940;BME280;65885;55.848;35.916;2023-05-19T05:00:57;100204.81;;;13.76;68.09
76940;BME280;65885;55.848;35.916;2023-05-19T05:03:24;100206.97;;;13.87;68.22
76940;BME280;65885;55.848;35.916;2023-05-19T05:05:52;100208.38;;;13.96;67.30
76940;BME280;65885;55.848;35.916;2023-05-19T05:08:21;100204.47;;;14.04;66.61
76940;BME280;65885;55.848;35.916;2023-05-19T05:10:50;100205.06;;;14.11;66.27
76940;BME280;65885;55.848;35.916;2023-05-19T05:13:21;100211.66;;;14.21;66.15
76940;BME280;65885;55.848;35.916;2023-05-19T05:15:50;100210.41;;;14.30;66.07
76940;BME280;65885;55.848;35.916;2023-05-19T05:18:19;100215.19;;;14.40;65.41
76940;BME280;65885;55.848;35.916;2023-05-19T05:20:47;100211.19;;;14.52;65.39
76940;BME280;65885;55.848;35.916;2023-05-19T05:23:15;100208.81;;;14.65;65.00
76940;BME280;65885;55.848;35.916;2023-05-19T05:25:43;100214.41;;;14.78;64.83
76940;BME280;65885;55.848;35.916;2023-05-19T05:28:10;100217.19;;;14.93;64.25
76940;BME280;65885;55.848;35.916;2023-05-19T05:30:39;100214.91;;;15.05;63.62
76940;BME280;65885;55.848;35.916;2023-05-19T05:33:08;100226.66;;;15.16;63.08
76940;BME280;65885;55.848;35.916;2023-05-19T05:35:36;100230.44;;;15.30;63.06
76940;BME280;65885;55.848;35.916;2023-05-19T05:38:04;100223.84;;;15.38;61.68
76940;BME280;65885;55.848;35.916;2023-05-19T05:40:32;100232.06;;;15.51;61.99
76940;BME280;65885;55.848;35.916;2023-05-19T05:43:01;100249.13;;;15.63;61.32
76940;BME280;65885;55.848;35.916;2023-05-19T05:45:29;100232.00;;;15.70;61.21
76940;BME280;65885;55.848;35.916;2023-05-19T05:47:58;100239.47;;;15.79;60.91
76940;BME280;65885;55.848;35.916;2023-05-19T05:50:27;100249.75;;;15.85;59.58
76940;BME280;65885;55.848;35.916;2023-05-19T05:52:54;100240.84;;;15.88;59.63
76940;BME280;65885;55.848;35.916;2023-05-19T05:55:27;100247.66;;;15.92;59.56
76940;BME280;65885;55.848;35.916;2023-05-19T05:57:54;100240.44;;;15.95;59.40
76940;BME280;65885;55.848;35.916;2023-05-19T06:00:23;100256.25;;;15.97;58.52
76940;BME280;65885;55.848;35.916;2023-05-19T06:02:53;100252.66;;;15.98;58.81
76940;BME280;65885;55.848;35.916;2023-05-19T06:05:23;100253.34;;;16.01;58.83
76940;BME280;65885;55.848;35.916;2023-05-19T06:07:55;100260.22;;;16.05;58.28
76940;BME280;65885;55.848;35.916;2023-05-19T06:10:22;100259.91;;;16.12;58.07
76940;BME280;65885;55.848;35.916;2023-05-19T06:12:50;100259.66;;;16.16;57.96
76940;BME280;65885;55.848;35.916;2023-05-19T06:15:17;100258.47;;;16.22;57.56
76940;BME280;65885;55.848;35.916;2023-05-19T06:17:47;100249.47;;;16.26;57.17
76940;BME280;65885;55.848;35.916;2023-05-19T06:20:14;100254.41;;;16.32;57.74
76940;BME280;65885;55.848;35.916;2023-05-19T06:22:46;100249.84;;;16.35;57.47
76940;BME280;65885;55.848;35.916;2023-05-19T06:25:14;100259.47;;;16.36;55.92
76940;BME280;65885;55.848;35.916;2023-05-19T06:27:41;100252.31;;;16.38;56.72
76940;BME280;65885;55.848;35.916;2023-05-19T06:30:09;100250.50;;;16.39;56.56
76940;BME280;65885;55.848;35.916;2023-05-19T06:32:37;100256.44;;;16.44;57.25
76940;BME280;65885;55.848;35.916;2023-05-19T06:35:04;100251.75;;;16.49;56.99
76940;BME280;65885;55.848;35.916;2023-05-19T06:37:32;100259.38;;;16.55;56.66
76940;BME280;65885;55.848;35.916;2023-05-19T06:40:01;100250.94;;;16.64;56.68
76940;BME280;65885;55.848;35.916;2023-05-19T06:42:32;100259.28;;;16.74;56.54
76940;BME280;65885;55.848;35.916;2023-05-19T06:45:04;100259.72;;;16.82;55.76
76940;BME280;65885;55.848;35.916;2023-05-19T06:47:34;100265.78;;;16.84;55.17
76940;BME280;65885;55.848;35.916;2023-05-19T06:50:01;100258.44;;;16.89;55.00
76940;BME280;65885;55.848;35.916;2023-05-19T06:52:31;100260.91;;;16.92;54.76
76940;BME280;65885;55.848;35.916;2023-05-19T06:55:00;100261.44;;;16.99;54.72
76940;BME280;65885;55.848;35.916;2023-05-19T06:57:30;100255.31;;;17.14;56.01
76940;BME280;65885;55.848;35.916;2023-05-19T06:59:58;100256.44;;;17.26;54.77
76940;BME280;65885;55.848;35.916;2023-05-19T07:02:25;100248.03;;;17.34;53.83
76940;BME280;65885;55.848;35.916;2023-05-19T07:04:54;100253.66;;;17.43;53.77
76940;BME280;65885;55.848;35.916;2023-05-19T07:07:22;100257.53;;;17.54;52.93
76940;BME280;65885;55.848;35.916;2023-05-19T07:09:51;100255.88;;;17.67;52.38
76940;BME280;65885;55.848;35.916;2023-05-19T07:12:20;100254.16;;;17.82;51.72
76940;BME280;65885;55.848;35.916;2023-05-19T07:14:47;100267.56;;;17.94;51.29
76940;BME280;65885;55.848;35.916;2023-05-19T07:17:15;100259.75;;;18.07;50.24
76940;BME280;65885;55.848;35.916;2023-05-19T07:19:42;100259.47;;;18.12;49.56
76940;BME280;65885;55.848;35.916;2023-05-19T07:22:09;100259.28;;;18.15;48.56
76940;BME280;65885;55.848;35.916;2023-05-19T07:24:37;100259.78;;;18.21;49.00
76940;BME280;65885;55.848;35.916;2023-05-19T07:27:04;100255.88;;;18.27;48.90
76940;BME280;65885;55.848;35.916;2023-05-19T07:29:35;100258.28;;;18.32;49.13
76940;BME280;65885;55.848;35.916;2023-05-19T07:32:03;100259.63;;;18.39;49.34
76940;BME280;65885;55.848;35.916;2023-05-19T07:34:30;100259.06;;;18.48;49.01
76940;BME280;65885;55.848;35.916;2023-05-19T07:37:00;100259.63;;;18.53;47.57
76940;BME280;65885;55.848;35.916;2023-05-19T07:39:28;100264.75;;;18.56;47.62
76940;BME280;65885;55.848;35.916;2023-05-19T07:41:59;100268.09;;;18.60;46.44
76940;BME280;65885;55.848;35.916;2023-05-19T07:44:28;100257.16;;;18.64;46.19
76940;BME280;65885;55.848;35.916;2023-05-19T07:47:01;100253.75;;;18.62;45.92
76940;BME280;65885;55.848;35.916;2023-05-19T07:49:28;100263.53;;;18.62;45.25
76940;BME280;65885;55.848;35.916;2023-05-19T07:51:59;100260.78;;;18.63;46.00
76940;BME280;65885;55.848;35.916;2023-05-19T07:54:29;100253.00;;;18.60;45.19
76940;BME280;65885;55.848;35.916;2023-05-19T07:56:56;100251.84;;;18.64;45.92
76940;BME280;65885;55.848;35.916;2023-05-19T07:59:26;100255.75;;;18.73;45.31
76940;BME280;65885;55.848;35.916;2023-05-19T08:01:53;100255.22;;;18.82;44.93
76940;BME280;65885;55.848;35.916;2023-05-19T08:04:22;100245.34;;;18.84;43.05
76940;BME280;65885;55.848;35.916;2023-05-19T08:06:50;100258.41;;;18.87;43.62
76940;BME280;65885;55.848;35.916;2023-05-19T08:09:18;100246.66;;;18.91;45.72
76940;BME280;65885;55.848;35.916;2023-05-19T08:11:45;100250.44;;;19.01;44.91
76940;BME280;65885;55.848;35.916;2023-05-19T08:14:13;100256.19;;;19.22;45.31
76940;BME280;65885;55.848;35.916;2023-05-19T08:16:42;100253.75;;;19.46;43.74
76940;BME280;65885;55.848;35.916;2023-05-19T08:19:10;100258.03;;;19.76;43.76
76940;BME280;65885;55.848;35.916;2023-05-19T08:21:39;100259.16;;;19.99;42.65
76940;BME280;65885;55.848;35.916;2023-05-19T08:24:07;100263.91;;;20.20;43.35
76940;BME280;65885;55.848;35.916;2023-05-19T08:26:35;100261.03;;;20.36;42.70
76940;BME280;65885;55.848;35.916;2023-05-19T08:29:02;100262.56;;;20.53;42.22
76940;BME280;65885;55.848;35.916;2023-05-19T08:31:32;100256.69;;;20.73;44.01
76940;BME280;65885;55.848;35.916;2023-05-19T08:34:00;100249.53;;;20.87;41.01
76940;BME280;65885;55.848;35.916;2023-05-19T08:36:28;100248.53;;;21.00;39.14
76940;BME280;65885;55.848;35.916;2023-05-19T08:39:00;100247.66;;;21.13;40.69
76940;BME280;65885;55.848;35.916;2023-05-19T08:41:31;100248.06;;;21.32;40.78
76940;BME280;65885;55.848;35.916;2023-05-19T08:43:58;100254.59;;;21.52;39.67
76940;BME280;65885;55.848;35.916;2023-05-19T08:46:26;100247.78;;;21.72;38.78
76940;BME280;65885;55.848;35.916;2023-05-19T08:49:12;100257.81;;;21.92;38.00
76940;BME280;65885;55.848;35.916;2023-05-19T08:51:59;100243.84;;;22.24;38.29
76940;BME280;65885;55.848;35.916;2023-05-19T08:54:35;100249.47;;;22.43;36.33
76940;BME280;65885;55.848;35.916;2023-05-19T08:57:05;100255.06;;;22.51;35.29
76940;BME280;65885;55.848;35.916;2023-05-19T08:59:32;100262.66;;;22.68;35.45
76940;BME280;65885;55.848;35.916;2023-05-19T09:02:01;100259.72;;;22.83;35.14
76940;BME280;65885;55.848;35.916;2023-05-19T09:04:30;100249.06;;;23.05;35.58
76940;BME280;65885;55.848;35.916;2023-05-19T09:06:58;100250.31;;;23.33;37.17
76940;BME280;65885;55.848;35.916;2023-05-19T09:09:29;100249.69;;;23.52;35.93
76940;BME280;65885;55.848;35.916;2023-05-19T09:11:56;100253.31;;;23.62;34.46
76940;BME280;65885;55.848;35.916;2023-05-19T09:14:24;100250.34;;;23.76;33.49
76940;BME280;65885;55.848;35.916;2023-05-19T09:16:52;100254.22;;;23.84;32.67
76940;BME280;65885;55.848;35.916;2023-05-19T09:19:20;100254.75;;;23.98;34.15
76940;BME280;65885;55.848;35.916;2023-05-19T09:21:56;100252.84;;;24.10;32.38
76940;BME280;65885;55.848;35.916;2023-05-19T09:24:26;100248.44;;;24.20;32.77
76940;BME280;65885;55.848;35.916;2023-05-19T09:26:56;100238.41;;;24.33;33.40
76940;BME280;65885;55.848;35.916;2023-05-19T09:29:24;100250.25;;;24.41;31.57
76940;BME280;65885;55.848;35.916;2023-05-19T09:31:53;100244.50;;;24.45;32.77
76940;BME280;65885;55.848;35.916;2023-05-19T09:34:25;100241.09;;;24.64;32.85
76940;BME280;65885;55.848;35.916;2023-05-19T09:36:53;100243.22;;;24.70;31.01
76940;BME280;65885;55.848;35.916;2023-05-19T09:39:21;100242.50;;;24.68;31.29
76940;BME280;65885;55.848;35.916;2023-05-19T09:41:50;100239.13;;;24.66;31.24
76940;BME280;65885;55.848;35.916;2023-05-19T09:44:25;100236.66;;;24.53;30.12
76940;BME280;65885;55.848;35.916;2023-05-19T09:46:54;100237.75;;;24.30;28.41
76940;BME280;65885;55.848;35.916;2023-05-19T09:49:23;100238.22;;;24.14;29.91
76940;BME280;65885;55.848;35.916;2023-05-19T09:51:54;100240.72;;;24.06;30.75
76940;BME280;65885;55.848;35.916;2023-05-19T09:54:22;100237.31;;;24.04;30.33
76940;BME280;65885;55.848;35.916;2023-05-19T09:56:51;100234.81;;;23.91;28.78
76940;BME280;65885;55.848;35.916;2023-05-19T09:59:24;100237.31;;;23.72;29.85
76940;BME280;65885;55.848;35.916;2023-05-19T10:01:53;100236.25;;;23.63;30.95
76940;BME280;65885;55.848;35.916;2023-05-19T10:04:22;100234.19;;;23.56;31.10
76940;BME280;65885;55.848;35.916;2023-05-19T10:06:50;100242.75;;;23.61;31.49
76940;BME280;65885;55.848;35.916;2023-05-19T10:09:22;100233.84;;;23.60;29.87
76940;BME280;65885;55.848;35.916;2023-05-19T10:11:51;100242.84;;;23.59;30.12
76940;BME280;65885;55.848;35.916;2023-05-19T10:14:21;100240.53;;;23.54;30.55
76940;BME280;65885;55.848;35.916;2023-05-19T10:16:52;100243.56;;;23.50;29.33
76940;BME280;65885;55.848;35.916;2023-05-19T10:19:21;100244.09;;;23.44;29.40
76940;BME280;65885;55.848;35.916;2023-05-19T10:21:48;100230.28;;;23.28;29.57
76940;BME280;65885;55.848;35.916;2023-05-19T10:24:16;100231.97;;;23.17;29.55
76940;BME280;65885;55.848;35.916;2023-05-19T10:26:46;100240.41;;;23.13;30.04
76940;BME280;65885;55.848;35.916;2023-05-19T10:29:18;100231.03;;;23.07;29.77
76940;BME280;65885;55.848;35.916;2023-05-19T10:31:46;100240.91;;;23.07;31.04
76940;BME280;65885;55.848;35.916;2023-05-19T10:34:33;100234.69;;;23.06;30.87
76940;BME280;65885;55.848;35.916;2023-05-19T10:37:12;100238.09;;;23.08;30.81
76940;BME280;65885;55.848;35.916;2023-05-19T10:39:43;100234.91;;;23.14;29.81
76940;BME280;65885;55.848;35.916;2023-05-19T10:42:15;100233.44;;;23.21;30.77
76940;BME280;65885;55.848;35.916;2023-05-19T10:44:52;100234.53;;;23.30;30.36
76940;BME280;65885;55.848;35.916;2023-05-19T10:47:24;100244.25;;;23.31;30.46
76940;BME280;65885;55.848;35.916;2023-05-19T10:49:54;100243.66;;;23.16;27.02
76940;BME280;65885;55.848;35.916;2023-05-19T10:52:22;100239.31;;;22.93;27.65
76940;BME280;65885;55.848;35.916;2023-05-19T10:54:56;100247.69;;;22.77;28.88
76940;BME280;65885;55.848;35.916;2023-05-19T10:57:25;100247.44;;;22.69;28.04
76940;BME280;65885;55.848;35.916;2023-05-19T10:59:54;100243.06;;;22.57;29.16
76940;BME280;65885;55.848;35.916;2023-05-19T11:02:41;100245.34;;;22.50;29.46
76940;BME280;65885;55.848;35.916;2023-05-19T11:05:12;100239.41;;;22.47;30.38
76940;BME280;65885;55.848;35.916;2023-05-19T11:07:42;100237.56;;;22.47;30.96
76940;BME280;65885;55.848;35.916;2023-05-19T11:10:11;100239.53;;;22.45;30.47
76940;BME280;65885;55.848;35.916;2023-05-19T11:12:39;100239.41;;;22.47;29.21
76940;BME280;65885;55.848;35.916;2023-05-19T11:15:10;100230.06;;;22.52;30.50
76940;BME280;65885;55.848;35.916;2023-05-19T11:17:38;100230.78;;;22.54;30.58
76940;BME280;65885;55.848;35.916;2023-05-19T11:20:08;100231.53;;;22.67;30.99
76940;BME280;65885;55.848;35.916;2023-05-19T11:23:04;100226.78;;;22.82;31.04
76940;BME280;65885;55.848;35.916;2023-05-19T11:25:43;100230.44;;;22.92;29.38
76940;BME280;65885;55.848;35.916;2023-05-19T11:28:13;100228.72;;;23.03;30.22
76940;BME280;65885;55.848;35.916;2023-05-19T11:30:41;100223.84;;;23.08;30.08
76940;BME280;65885;55.848;35.916;2023-05-19T11:33:09;100235.38;;;23.19;30.52
76940;BME280;65885;55.848;35.916;2023-05-19T11:35:38;100230.50;;;23.24;29.48
76940;BME280;65885;55.848;35.916;2023-05-19T11:38:07;100231.84;;;23.30;29.50
76940;BME280;65885;55.848;35.916;2023-05-19T11:40:35;100229.28;;;23.29;29.25
76940;BME280;65885;55.848;35.916;2023-05-19T11:43:03;100227.59;;;23.16;28.61
76940;BME280;65885;55.848;35.916;2023-05-19T11:45:30;100225.41;;;23.10;27.94
76940;BME280;65885;55.848;35.916;2023-05-19T11:47:59;100229.22;;;22.96;27.44
76940;BME280;65885;55.848;35.916;2023-05-19T11:50:29;100226.16;;;22.79;26.91
76940;BME280;65885;55.848;35.916;2023-05-19T11:52:59;100225.31;;;22.78;28.03
76940;BME280;65885;55.848;35.916;2023-05-19T11:55:28;100224.97;;;22.83;28.55
76940;BME280;65885;55.848;35.916;2023-05-19T11:57:56;100216.94;;;22.94;28.41
76940;BME280;65885;55.848;35.916;2023-05-19T12:00:25;100221.81;;;23.00;27.88
76940;BME280;65885;55.848;35.916;2023-05-19T12:02:52;100219.63;;;23.05;28.38
76940;BME280;65885;55.848;35.916;2023-05-19T12:05:21;100223.72;;;23.09;28.87
76940;BME280;65885;55.848;35.916;2023-05-19T12:07:49;100223.09;;;23.17;28.72
76940;BME280;65885;55.848;35.916;2023-05-19T12:10:17;100225.16;;;23.24;28.59
76940;BME280;65885;55.848;35.916;2023-05-19T12:12:47;100223.09;;;23.28;28.17
76940;BME280;65885;55.848;35.916;2023-05-19T12:15:18;100220.25;;;23.41;28.20
76940;BME280;65885;55.848;35.916;2023-05-19T12:17:48;100223.34;;;23.57;28.73
76940;BME280;65885;55.848;35.916;2023-05-19T12:20:16;100222.72;;;23.76;28.66
76940;BME280;65885;55.848;35.916;2023-05-19T12:22:44;100219.84;;;23.89;28.07
76940;BME280;65885;55.848;35.916;2023-05-19T12:25:13;100214.41;;;24.00;27.49
76940;BME280;65885;55.848;35.916;2023-05-19T12:27:42;100221.22;;;24.04;28.24
76940;BME280;65885;55.848;35.916;2023-05-19T12:30:11;100226.31;;;24.07;27.82
76940;BME280;65885;55.848;35.916;2023-05-19T12:32:39;100225.53;;;24.16;28.36
76940;BME280;65885;55.848;35.916;2023-05-19T12:35:08;100229.34;;;24.14;27.09
76940;BME280;65885;55.848;35.916;2023-05-19T12:37:40;100229.19;;;24.15;27.54
76940;BME280;65885;55.848;35.916;2023-05-19T12:40:13;100227.13;;;24.19;27.72
76940;BME280;65885;55.848;35.916;2023-05-19T12:42:43;100232.25;;;24.11;27.81
76940;BME280;65885;55.848;35.916;2023-05-19T12:45:12;100232.53;;;24.07;27.44
76940;BME280;65885;55.848;35.916;2023-05-19T12:47:40;100226.25;;;23.97;28.10
76940;BME280;65885;55.848;35.916;2023-05-19T12:50:09;100226.72;;;23.82;27.60
76940;BME280;65885;55.848;35.916;2023-05-19T12:52:41;100227.50;;;23.61;27.77